EDT,Max TemperatureF,Mean TemperatureF,Min TemperatureF,Max Dew PointF,MeanDew PointF,Min DewpointF,Max Humidity, Mean Humidity, Min Humidity, Max Sea Level PressureIn, Mean Sea Level PressureIn, Min Sea Level PressureIn, Max VisibilityMiles, Mean VisibilityMiles, Min VisibilityMiles, Max Wind SpeedMPH, Mean Wind SpeedMPH, Max Gust SpeedMPH,PrecipitationIn, CloudCover, Events, WindDirDegrees
2013-3-1,41,37,33,34,31,28,100,79,65,30.03,30.00,29.98,10,10,7,9,5,,0.00,8,Rain,303
2013-3-2,37,34,32,34,30,27,100,86,70,30.07,30.01,29.97,10,10,5,15,5,22,0.00,8,Rain-Snow,321
2013-3-3,37,32,26,27,23,18,86,69,52,30.10,30.08,30.05,10,10,10,16,10,25,0.00,5,Snow,334
2013-3-4,51,38,26,32,26,21,86,58,34,30.19,30.10,30.00,10,10,10,7,2,,0.00,2,,136
2013-3-5,60,48,37,55,42,28,100,74,50,30.04,29.89,29.62,10,10,1,24,6,34,0.02,8,Rain-Thunderstorm,184
2013-3-6,41,36,32,32,28,23,100,76,65,30.23,30.11,29.93,10,10,2,28,12,36,0.02,7,Rain-Snow,325
2013-3-7,46,40,32,32,31,28,93,77,57,30.31,30.27,30.22,10,10,10,18,11,25,0.00,3,,346
2013-3-8,57,44,30,30,27,23,93,61,29,30.35,30.29,30.25,10,10,10,16,10,24,0.00,0,,344
2013-3-9,59,46,32,32,31,28,100,57,36,30.32,30.24,30.18,10,10,10,10,3,16,0.00,0,,158
2013-3-10,68,60,51,43,34,32,55,39,26,30.18,30.10,30.01,10,10,10,20,10,30,0.01,0,,153
2013-3-11,60,53,44,55,51,43,100,84,52,30.03,29.91,29.79,10,8,2,22,12,30,0.07,6,Rain,157
2013-3-12,55,46,37,43,34,32,93,68,41,30.12,30.01,29.91,10,10,10,17,9,22,0.01,3,,330
2013-3-13,50,40,30,36,28,21,100,67,37,30.33,30.20,30.11,10,10,7,21,5,28,0.00,1,,330
2013-3-14,50,39,28,37,23,19,87,57,30,30.41,30.33,30.24,10,10,10,13,8,20,0.00,2,Rain,342
2013-3-15,73,52,32,45,38,32,100,68,33,30.27,30.11,29.97,10,10,10,12,2,18,0.00,1,,194
2013-3-16,75,63,51,46,44,43,76,55,31,29.99,29.94,29.87,10,10,10,12,3,17,0.00,0,,189
2013-3-17,68,60,51,54,49,45,88,68,49,30.00,29.94,29.90,10,10,10,9,3,18,0.00,1,,162
2013-3-18,59,54,50,55,52,50,100,94,77,29.94,29.88,29.78,10,9,3,20,6,24,0.00,6,Rain-Thunderstorm,156
2013-3-19,60,50,39,50,35,21,100,60,31,30.13,30.05,29.91,10,10,7,17,7,22,0.01,2,,341
2013-3-20,55,46,37,32,23,14,75,43,24,30.16,30.06,29.93,10,10,10,18,6,28,0.00,4,,324
2013-3-21,44,36,28,32,18,12,81,51,31,30.05,29.99,29.93,10,10,10,15,8,22,0.00,1,,331
2013-3-22,46,39,32,36,26,19,76,59,46,30.08,30.02,29.99,10,10,10,5,2,,0.00,7,,328
2013-3-23,51,45,39,50,43,34,100,91,70,30.02,29.93,29.76,10,8,3,8,1,,0.02,8,Rain-Thunderstorm,1
2013-3-24,57,50,42,54,47,32,100,90,62,29.83,29.62,29.46,10,8,2,14,5,29,0.06,8,Rain-Thunderstorm,204
2013-3-25,42,37,32,32,27,25,87,69,60,30.09,29.90,29.71,10,10,10,16,9,25,0.00,8,Snow,282
2013-3-26,39,36,32,32,28,27,100,78,61,30.31,30.18,30.07,10,10,7,18,7,24,0.00,7,Snow,313
2013-3-27,51,38,26,32,28,25,100,70,38,30.37,30.31,30.25,10,10,10,14,3,20,0.00,1,,320
2013-3-28,59,44,28,34,30,28,100,64,34,30.37,30.30,30.25,10,10,10,14,3,18,0.00,1,,335
2013-3-29,57,44,32,41,35,32,100,74,38,30.35,30.28,30.20,10,10,10,8,1,,0.00,6,,354
2013-3-30,68,55,42,55,46,41,100,82,40,30.22,30.13,30.01,10,8,4,12,3,23,0.02,6,Rain,73
2013-3-31,64,58,53,59,55,54,100,94,73,30.01,29.93,29.87,10,7,2,8,2,,0.02,8,Rain,175